Deblin, Poland

2:09 PM CET on December 21, 2014 (GMT +0100)
IMAZOVIA3 | Change Station
CLOSE
Current Station
Personal Weather Station
Location: Pionki, MAZOVIA
Elevation: 518 ft
Nearby Weather Stations

Elev 518 ft 51.48 °N, 21.44 °E | Updated 41 seconds ago

Mostly Cloudy
Mostly Cloudy
44.4 °F
Feels Like 44 °F
N
0.0
Wind Variable Wind from ENE
Gusts 14.3 mph

Today
High -- | Low -- °F
--% Chance of Precip.
Yesterday
High -- | Low -- °F
Precip. -- in
7:35 AM 3:25 PM
Waning Crescent, 0% visible
Pressure 30.01 in
Visibility 6.2 miles
Clouds Few 2300 ft
Mostly Cloudy 4600 ft
Windchill 44 °F
Dew Point 33 °F
Humidity 64%
Rainfall -999.00 in
Snow Depth Not available.
UV 0 out of 12
Pollen Not available.
Air Quality Not available.
Flu Activity Not available.
METAR EPLB 211300Z 28015KT 9999 FEW023 BKN046 04/01 Q1016

More Conditions Fewer Conditions

Pressure 30.01 in
Visibility 6.2 miles
Clouds Few 2300 ft
Mostly Cloudy 4600 ft
Windchill 44 °F
Dew Point 33 °F
Humidity 64%
Rainfall -999.00 in
Snow Depth Not available.
UV 0 out of 12
Pollen Not available.
Air Quality Not available.
Flu Activity Not available.
METAR EPLB 211300Z 28015KT 9999 FEW023 BKN046 04/01 Q1016

More Conditions Fewer Conditions

10-Day Weather Forecast

Almanac

Astronomy

Dec. 21, 2014 Rise Set
Actual Time
Civil Twilight
Nautical Twilight
Astronomical Twilight
Moon
Length of Visible Light
Length of Day
Tomorrow will be .
, % of the Moon is Illuminated

Today's Extremes

Country Highs Country Lows

Community

WunderPhotos

Upload Photos

1,779,373 photos uploaded!

WunderBlogs® & News

Nearby

Air Quality

  Air Quality AQ Index Pollutant
Not available.

Snow Depth

Station Depth Elevation

Earthquake Activity

City Distance Mag. Time & Date
Minimum magnitude displayed is 2.5.

Coastal Water Temperatures

Place Temperature

Nearby Weather Stations